Almont, North Dakota
Current Conditions -  °F | °C
As of 3:15 PM on Friday 31 Oct 2014 (Local Time) from KD57 Reporting Station
Clear Clear  
Wind Chill: 33°   Ceiling: Unl
Heat Index: 43°   Visibility: 10mi
Dew Point: 12°   Wind: 28mph
Humidity: 29%   Direction: 150°SSE
Pressure: 30.15"   Gusts: 37mph
Location:  46.73°N, 101.5°W
Report Text: KD57 312115Z AUTO 15024G32KT 10SM CLR 06/M11 A3015 RMK AO2 TSNO
Loading
Personal Weather Stations






























Interactive Weather Map
Tropical Storm Tracking
New forecast layout! Learn more

10-Day Weather Forecast

Advertisements
Track Severe Weather on mobile